CFG2050 EDDN-EDDV
Flight info
| Callsign | CFG2050 |
|---|---|
| Flight time | N/A |
| Altitude | 30000 |
| Route | ERETO1C/10 ERETO DCT LONLI M726 LASTO M852 BIRKA/N0422F240 T803 GITEX GITEX1Z |
| Aircraft | A339/H-SADE1E2E3GHIJ3J5M1P2RWXY/LB2D1 |
Departure
| Time | 2026-04-29 12:44 |
|---|---|
| Airport | Nuremberg Airport (EDDN) |
Arrival
| Time | N/A |
|---|---|
| Airport | Hannover Airport (EDDV) |
| Time | Latitude | Longitude | Altitude | Speed | Heading |
|---|---|---|---|---|---|
| 2026-04-29 12:27 | 49.49479 | 11.08167 | 1040 ft | 0 kts | 188° |
| 2026-04-29 12:36 | 49.49482 | 11.08168 | 1040 ft | 2 kts | 188° |
| 2026-04-29 12:36 | 49.49493 | 11.08170 | 1041 ft | 2 kts | 188° |
| 2026-04-29 12:37 | 49.49504 | 11.08173 | 1042 ft | 2 kts | 188° |
| 2026-04-29 12:37 | 49.49514 | 11.08175 | 1043 ft | 2 kts | 192° |
| 2026-04-29 12:37 | 49.49525 | 11.08176 | 1044 ft | 2 kts | 211° |
| 2026-04-29 12:37 | 49.49534 | 11.08185 | 1045 ft | 2 kts | 231° |
| 2026-04-29 12:38 | 49.49543 | 11.08197 | 1047 ft | 2 kts | 274° |
| 2026-04-29 12:38 | 49.49544 | 11.08199 | 1047 ft | 0 kts | 277° |
| 2026-04-29 12:40 | 49.49545 | 11.08187 | 1046 ft | 4 kts | 278° |
| 2026-04-29 12:40 | 49.49551 | 11.08116 | 1044 ft | 9 kts | 278° |
| 2026-04-29 12:40 | 49.49564 | 11.07996 | 1044 ft | 13 kts | 279° |
| 2026-04-29 12:40 | 49.49587 | 11.07842 | 1044 ft | 15 kts | 296° |
| 2026-04-29 12:41 | 49.49660 | 11.07760 | 1048 ft | 13 kts | 317° |
| 2026-04-29 12:41 | 49.49696 | 11.07634 | 1049 ft | 14 kts | 281° |
| 2026-04-29 12:41 | 49.49713 | 11.07456 | 1046 ft | 23 kts | 279° |
| 2026-04-29 12:41 | 49.49746 | 11.07128 | 1041 ft | 34 kts | 281° |
| 2026-04-29 12:42 | 49.49782 | 11.06762 | 1036 ft | 35 kts | 279° |
| 2026-04-29 12:42 | 49.49820 | 11.06390 | 1037 ft | 33 kts | 278° |
| 2026-04-29 12:42 | 49.49848 | 11.06077 | 1038 ft | 28 kts | 281° |
| 2026-04-29 12:42 | 49.49965 | 11.05932 | 1039 ft | 21 kts | 347° |
| 2026-04-29 12:43 | 49.50048 | 11.05978 | 1038 ft | 8 kts | 70° |
| 2026-04-29 12:43 | 49.50035 | 11.06123 | 1040 ft | 44 kts | 98° |
| 2026-04-29 12:43 | 49.49933 | 11.07186 | 1047 ft | 151 kts | 98° |
| 2026-04-29 12:43 | 49.49753 | 11.09066 | 1544 ft | 189 kts | 96° |
| 2026-04-29 12:44 | 49.49631 | 11.11137 | 2523 ft | 201 kts | 96° |
| 2026-04-29 12:44 | 49.49505 | 11.13340 | 3438 ft | 213 kts | 94° |
| 2026-04-29 12:44 | 49.49376 | 11.15742 | 4161 ft | 235 kts | 96° |
| 2026-04-29 12:44 | 49.49364 | 11.18350 | 4762 ft | 256 kts | 79° |
| 2026-04-29 12:45 | 49.50102 | 11.20919 | 5375 ft | 270 kts | 52° |
| 2026-04-29 12:45 | 49.51457 | 11.22934 | 6255 ft | 274 kts | 38° |
| 2026-04-29 12:45 | 49.53012 | 11.24662 | 6740 ft | 277 kts | 33° |
| 2026-04-29 12:45 | 49.54594 | 11.26309 | 6943 ft | 279 kts | 33° |
| 2026-04-29 12:46 | 49.56191 | 11.28019 | 6996 ft | 279 kts | 35° |
| 2026-04-29 12:46 | 49.57766 | 11.29800 | 7292 ft | 283 kts | 37° |
| 2026-04-29 12:46 | 49.59416 | 11.31453 | 8201 ft | 282 kts | 27° |
| 2026-04-29 12:46 | 49.61270 | 11.32472 | 9135 ft | 285 kts | 11° |
| 2026-04-29 12:47 | 49.63238 | 11.32951 | 10011 ft | 289 kts | 7° |
| 2026-04-29 12:47 | 49.65272 | 11.33370 | 10568 ft | 306 kts | 7° |
| 2026-04-29 12:47 | 49.67465 | 11.33843 | 10872 ft | 329 kts | 8° |
| 2026-04-29 12:47 | 49.69787 | 11.34392 | 11385 ft | 342 kts | 9° |
| 2026-04-29 12:48 | 49.72146 | 11.34990 | 12146 ft | 346 kts | 9° |
| 2026-04-29 12:48 | 49.74534 | 11.35618 | 12911 ft | 350 kts | 9° |
| 2026-04-29 12:48 | 49.76947 | 11.36264 | 13653 ft | 353 kts | 10° |
| 2026-04-29 12:48 | 49.79381 | 11.36919 | 14381 ft | 357 kts | 10° |
| 2026-04-29 12:49 | 49.81844 | 11.37577 | 15079 ft | 361 kts | 10° |
| 2026-04-29 12:49 | 49.84334 | 11.38241 | 15769 ft | 365 kts | 10° |
| 2026-04-29 12:49 | 49.86856 | 11.38913 | 16442 ft | 368 kts | 10° |
| 2026-04-29 12:49 | 49.89396 | 11.39587 | 17083 ft | 373 kts | 9° |
| 2026-04-29 12:50 | 49.91993 | 11.39863 | 17698 ft | 376 kts | 356° |
| 2026-04-29 12:50 | 49.94544 | 11.38992 | 18343 ft | 378 kts | 339° |
| 2026-04-29 12:50 | 49.96842 | 11.36999 | 18964 ft | 382 kts | 323° |
| 2026-04-29 12:50 | 49.98871 | 11.34307 | 19584 ft | 385 kts | 316° |
| 2026-04-29 12:51 | 50.00786 | 11.31453 | 20193 ft | 389 kts | 316° |
| 2026-04-29 12:51 | 50.02763 | 11.28548 | 20796 ft | 392 kts | 317° |
| 2026-04-29 12:51 | 50.04825 | 11.25715 | 21400 ft | 396 kts | 321° |
| 2026-04-29 12:51 | 50.07198 | 11.23517 | 21996 ft | 400 kts | 337° |
| 2026-04-29 12:52 | 50.09892 | 11.22404 | 22605 ft | 404 kts | 353° |
| 2026-04-29 12:52 | 50.12712 | 11.22375 | 23171 ft | 408 kts | 3° |
| 2026-04-29 12:52 | 50.15558 | 11.22677 | 23743 ft | 411 kts | 4° |
| 2026-04-29 12:52 | 50.18421 | 11.22924 | 24291 ft | 415 kts | 2° |
| 2026-04-29 12:53 | 50.21319 | 11.23053 | 24843 ft | 419 kts | 0° |
| 2026-04-29 12:53 | 50.24255 | 11.23101 | 25370 ft | 422 kts | 360° |
| 2026-04-29 12:53 | 50.27204 | 11.23107 | 25916 ft | 425 kts | 359° |
| 2026-04-29 12:53 | 50.30186 | 11.23099 | 26411 ft | 429 kts | 359° |
| 2026-04-29 12:54 | 50.33180 | 11.23090 | 26901 ft | 432 kts | 359° |
| 2026-04-29 12:54 | 50.36198 | 11.23048 | 27343 ft | 436 kts | 356° |
| 2026-04-29 12:54 | 50.39233 | 11.22596 | 27768 ft | 440 kts | 353° |
| 2026-04-29 12:54 | 50.42285 | 11.22016 | 28232 ft | 443 kts | 352° |
| 2026-04-29 12:55 | 50.45351 | 11.21446 | 28718 ft | 445 kts | 353° |
| 2026-04-29 12:55 | 50.48447 | 11.20909 | 29092 ft | 449 kts | 353° |
| 2026-04-29 12:55 | 50.51522 | 11.20412 | 29485 ft | 453 kts | 354° |
| 2026-04-29 12:55 | 50.54676 | 11.19927 | 29858 ft | 456 kts | 354° |
| 2026-04-29 12:56 | 50.57828 | 11.19454 | 29983 ft | 457 kts | 354° |
| 2026-04-29 12:56 | 50.61049 | 11.18975 | 30000 ft | 469 kts | 354° |
| 2026-04-29 12:56 | 50.64302 | 11.18491 | 29999 ft | 469 kts | 354° |
| 2026-04-29 12:57 | 50.70791 | 11.17522 | 30000 ft | 468 kts | 354° |
| 2026-04-29 12:57 | 50.77286 | 11.16539 | 30001 ft | 469 kts | 354° |
| 2026-04-29 12:58 | 50.83774 | 11.15550 | 29999 ft | 468 kts | 354° |
| 2026-04-29 12:58 | 50.90268 | 11.14554 | 30000 ft | 469 kts | 354° |
| 2026-04-29 12:59 | 50.96757 | 11.13556 | 30000 ft | 468 kts | 354° |
| 2026-04-29 12:59 | 51.03229 | 11.12555 | 30001 ft | 467 kts | 354° |
| 2026-04-29 13:00 | 51.09656 | 11.11525 | 30000 ft | 467 kts | 352° |
| 2026-04-29 13:00 | 51.15955 | 11.09105 | 30000 ft | 466 kts | 339° |
| 2026-04-29 13:01 | 51.21876 | 11.04875 | 30000 ft | 466 kts | 334° |
| 2026-04-29 13:01 | 51.27754 | 11.00499 | 30000 ft | 466 kts | 335° |
| 2026-04-29 13:02 | 51.33670 | 10.96207 | 30000 ft | 468 kts | 335° |
| 2026-04-29 13:02 | 51.38640 | 10.92641 | 30000 ft | 467 kts | 335° |
| 2026-04-29 13:03 | 51.44625 | 10.88634 | 29805 ft | 462 kts | 338° |
| 2026-04-29 13:03 | 51.47606 | 10.86725 | 29239 ft | 459 kts | 338° |
| 2026-04-29 13:03 | 51.50557 | 10.84842 | 28537 ft | 456 kts | 338° |
| 2026-04-29 13:03 | 51.53486 | 10.82965 | 27785 ft | 450 kts | 338° |
| 2026-04-29 13:04 | 51.56341 | 10.81123 | 27026 ft | 445 kts | 338° |
| 2026-04-29 13:04 | 51.59196 | 10.79270 | 26240 ft | 440 kts | 338° |
| 2026-04-29 13:04 | 51.62018 | 10.77431 | 25444 ft | 435 kts | 338° |
| 2026-04-29 13:04 | 51.64811 | 10.75604 | 24630 ft | 431 kts | 338° |
| 2026-04-29 13:05 | 51.67564 | 10.73800 | 23877 ft | 425 kts | 338° |
| 2026-04-29 13:05 | 51.70293 | 10.72008 | 23087 ft | 420 kts | 338° |
| 2026-04-29 13:05 | 51.72979 | 10.70241 | 22298 ft | 415 kts | 338° |
| 2026-04-29 13:05 | 51.75642 | 10.68489 | 21483 ft | 410 kts | 338° |
| 2026-04-29 13:06 | 51.78271 | 10.66756 | 20619 ft | 406 kts | 338° |
| 2026-04-29 13:06 | 51.80877 | 10.65035 | 19812 ft | 400 kts | 338° |
| 2026-04-29 13:06 | 51.83426 | 10.63350 | 19262 ft | 392 kts | 338° |
| 2026-04-29 13:06 | 51.85969 | 10.61667 | 19048 ft | 396 kts | 338° |
| 2026-04-29 13:07 | 51.88512 | 10.59981 | 19004 ft | 396 kts | 338° |
| 2026-04-29 13:07 | 51.91058 | 10.58290 | 19000 ft | 394 kts | 337° |
| 2026-04-29 13:07 | 51.93586 | 10.56609 | 18917 ft | 391 kts | 337° |
| 2026-04-29 13:07 | 51.96077 | 10.54953 | 18434 ft | 388 kts | 337° |
| 2026-04-29 13:08 | 51.98438 | 10.52890 | 17731 ft | 385 kts | 323° |
| 2026-04-29 13:08 | 52.00343 | 10.49840 | 17093 ft | 377 kts | 306° |
| 2026-04-29 13:08 | 52.01532 | 10.46111 | 16775 ft | 379 kts | 288° |
| 2026-04-29 13:08 | 52.02222 | 10.41961 | 16803 ft | 383 kts | 283° |
| 2026-04-29 13:09 | 52.02822 | 10.37748 | 16971 ft | 382 kts | 283° |
| 2026-04-29 13:09 | 52.03464 | 10.33573 | 17001 ft | 382 kts | 285° |
| 2026-04-29 13:09 | 52.04181 | 10.29420 | 17001 ft | 381 kts | 286° |
| 2026-04-29 13:09 | 52.04946 | 10.25305 | 17001 ft | 381 kts | 287° |
| 2026-04-29 13:10 | 52.05738 | 10.21177 | 17000 ft | 382 kts | 288° |
| 2026-04-29 13:10 | 52.06533 | 10.17064 | 17001 ft | 381 kts | 288° |
| 2026-04-29 13:10 | 52.07325 | 10.12955 | 16990 ft | 380 kts | 288° |
| 2026-04-29 13:10 | 52.08107 | 10.08869 | 16620 ft | 377 kts | 287° |
| 2026-04-29 13:11 | 52.08880 | 10.04808 | 15988 ft | 374 kts | 287° |
| 2026-04-29 13:11 | 52.09639 | 10.00795 | 15190 ft | 368 kts | 287° |
| 2026-04-29 13:11 | 52.10387 | 9.96830 | 14308 ft | 364 kts | 287° |
| 2026-04-29 13:11 | 52.11123 | 9.92909 | 13427 ft | 360 kts | 287° |
| 2026-04-29 13:12 | 52.11849 | 9.89029 | 12555 ft | 356 kts | 287° |
| 2026-04-29 13:12 | 52.12563 | 9.85201 | 11661 ft | 351 kts | 287° |
| 2026-04-29 13:12 | 52.13268 | 9.81425 | 10795 ft | 347 kts | 287° |
| 2026-04-29 13:12 | 52.13954 | 9.77746 | 10192 ft | 335 kts | 287° |
| 2026-04-29 13:13 | 52.14609 | 9.74251 | 9964 ft | 312 kts | 287° |
| 2026-04-29 13:13 | 52.15223 | 9.70991 | 9747 ft | 290 kts | 288° |
| 2026-04-29 13:13 | 52.15808 | 9.67903 | 9173 ft | 282 kts | 288° |
| 2026-04-29 13:13 | 52.16386 | 9.64859 | 8497 ft | 279 kts | 288° |
| 2026-04-29 13:14 | 52.16953 | 9.61847 | 7822 ft | 277 kts | 288° |
| 2026-04-29 13:14 | 52.17512 | 9.58866 | 7124 ft | 274 kts | 288° |
| 2026-04-29 13:14 | 52.18065 | 9.55906 | 6401 ft | 272 kts | 288° |
| 2026-04-29 13:14 | 52.18608 | 9.52978 | 5720 ft | 269 kts | 288° |
| 2026-04-29 13:15 | 52.19142 | 9.50081 | 5104 ft | 265 kts | 288° |
| 2026-04-29 13:15 | 52.19674 | 9.47198 | 4717 ft | 265 kts | 288° |
| 2026-04-29 13:15 | 52.20202 | 9.44330 | 4594 ft | 265 kts | 287° |
| 2026-04-29 13:15 | 52.20731 | 9.41444 | 4570 ft | 265 kts | 287° |
| 2026-04-29 13:16 | 52.21258 | 9.38564 | 4563 ft | 265 kts | 288° |
| 2026-04-29 13:16 | 52.21788 | 9.35675 | 4569 ft | 266 kts | 287° |
| 2026-04-29 13:16 | 52.22439 | 9.32867 | 4572 ft | 266 kts | 302° |
| 2026-04-29 13:16 | 52.23728 | 9.30784 | 4564 ft | 267 kts | 330° |
| 2026-04-29 13:17 | 52.25493 | 9.29952 | 4569 ft | 268 kts | 358° |
| 2026-04-29 13:17 | 52.27293 | 9.30608 | 4572 ft | 268 kts | 27° |
| 2026-04-29 13:17 | 52.28829 | 9.32334 | 4571 ft | 269 kts | 38° |
| 2026-04-29 13:17 | 52.30304 | 9.34214 | 4569 ft | 269 kts | 38° |
| 2026-04-29 13:18 | 52.31810 | 9.36026 | 4565 ft | 268 kts | 35° |
| 2026-04-29 13:18 | 52.33357 | 9.37734 | 4565 ft | 268 kts | 33° |
| 2026-04-29 13:18 | 52.34931 | 9.39368 | 4570 ft | 269 kts | 31° |
| 2026-04-29 13:18 | 52.36527 | 9.40975 | 4570 ft | 268 kts | 31° |
| 2026-04-29 13:19 | 52.38119 | 9.42563 | 4572 ft | 268 kts | 31° |
| 2026-04-29 13:19 | 52.39715 | 9.44161 | 4568 ft | 267 kts | 31° |
| 2026-04-29 13:19 | 52.41211 | 9.45679 | 4565 ft | 243 kts | 31° |
| 2026-04-29 13:19 | 52.42586 | 9.47073 | 4564 ft | 223 kts | 31° |
| 2026-04-29 13:20 | 52.43850 | 9.48358 | 4566 ft | 206 kts | 30° |
| 2026-04-29 13:20 | 52.45077 | 9.49593 | 4570 ft | 210 kts | 30° |
| 2026-04-29 13:20 | 52.46309 | 9.50865 | 4558 ft | 206 kts | 34° |
| 2026-04-29 13:20 | 52.47235 | 9.52583 | 4285 ft | 203 kts | 61° |
| 2026-04-29 13:21 | 52.47526 | 9.54926 | 3392 ft | 222 kts | 90° |
| 2026-04-29 13:21 | 52.47277 | 9.57537 | 2137 ft | 236 kts | 100° |
| 2026-04-29 13:21 | 52.47052 | 9.60169 | 1018 ft | 226 kts | 97° |
| 2026-04-29 13:21 | 52.46910 | 9.62574 | 472 ft | 195 kts | 92° |
| 2026-04-29 13:22 | 52.46848 | 9.64621 | 287 ft | 182 kts | 92° |
| 2026-04-29 13:22 | 52.46789 | 9.66733 | 186 ft | 169 kts | 93° |
| 2026-04-29 13:22 | 52.46747 | 9.68113 | 184 ft | 94 kts | 93° |